Time;durP1;ratioP1;P1;durP2;ratioP2;P2;SDS_P1;SDS_P2;PMS_P1;PMS_P2;Temp;Humidity;BMP_temperature;BMP_pressure;BME280_temperature;BME280_humidity;BME280_pressure;Samples;Min_cycle;Max_cycle;Signal;HPM_P1;HPM_P2
2023/05/11 00:03:19;;;;;;;;;;;;;;;12.75;79.21973;101566.3;;;;-70
2023/05/11 00:08:21;;;;;;;;;;;;;;;12.73;79.27344;101567.5;;;;-71
2023/05/11 00:13:22;;;;;;;;;;;;;;;12.71;79.52441;101565.5;;;;-69
2023/05/11 00:15:18;;;;;;;9.6;5.5;;;;;;;;;;;;;-70
2023/05/11 00:18:19;;;;;;;;;;;;;;;12.68;79.49609;101564.5;;;;-71
2023/05/11 00:23:19;;;;;;;;;;;;;;;12.66;79.41406;101558.1;;;;-70
2023/05/11 00:28:22;;;;;;;;;;;;;;;12.65;79.55762;101559.2;;;;-70
2023/05/11 00:33:19;;;;;;;;;;;;;;;12.61;79.49707;101553.1;;;;-70
2023/05/11 00:38:19;;;;;;;;;;;;;;;12.61;79.39355;101551.7;;;;-69
2023/05/11 00:43:21;;;;;;;;;;;;;;;12.58;79.7002;101551.1;;;;-70
2023/05/11 00:45:19;;;;;;;8.3;5.2;;;;;;;;;;;;;-69
2023/05/11 00:48:19;;;;;;;;;;;;;;;12.56;79.51855;101548.3;;;;-69
2023/05/11 00:53:19;;;;;;;;;;;;;;;12.55;79.51758;101549.3;;;;-69
2023/05/11 00:58:21;;;;;;;;;;;;;;;12.53;79.60449;101557.1;;;;-69
2023/05/11 01:03:19;;;;;;;;;;;;;;;12.5;79.49805;101559;;;;-68
2023/05/11 01:08:21;;;;;;;;;;;;;;;12.48;79.62598;101551.7;;;;-68
2023/05/11 01:13:29;;;;;;;;;;;;;;;12.47;79.7041;101543.7;;;;-69
2023/05/11 01:15:24;;;;;;;7.4;5;;;;;;;;;;;;;-69
2023/05/11 01:18:23;;;;;;;;;;;;;;;12.43;79.6748;101541.3;;;;-71
2023/05/11 01:23:30;;;;;;;;;;;;;;;12.43;79.8418;101540.3;;;;-72
2023/05/11 01:28:26;;;;;;;;;;;;;;;12.4;79.73535;101548.9;;;;-70
2023/05/11 01:33:21;;;;;;;;;;;;;;;12.4;79.67969;101548.3;;;;-69
2023/05/11 01:38:19;;;;;;;;;;;;;;;12.39;79.9668;101556.6;;;;-69
2023/05/11 01:43:21;;;;;;;;;;;;;;;12.37;79.71875;101550.6;;;;-70
2023/05/11 01:45:23;;;;;;;7.4;4.6;;;;;;;;;;;;;-69
2023/05/11 01:48:20;;;;;;;;;;;;;;;12.36;79.87305;101551.5;;;;-69
2023/05/11 01:53:20;;;;;;;;;;;;;;;12.33;79.86621;101562.8;;;;-70
2023/05/11 01:58:20;;;;;;;;;;;;;;;12.32;79.65527;101562.3;;;;-69
2023/05/11 02:03:19;;;;;;;;;;;;;;;12.3;79.7168;101558.8;;;;-70
2023/05/11 02:08:19;;;;;;;;;;;;;;;12.29;79.79297;101560.6;;;;-70
2023/05/11 02:13:20;;;;;;;;;;;;;;;12.28;79.80078;101570;;;;-70
2023/05/11 02:15:24;;;;;;;8.3;5;;;;;;;;;;;;;-70
2023/05/11 02:18:19;;;;;;;;;;;;;;;12.25;79.97559;101572;;;;-71
2023/05/11 02:23:20;;;;;;;;;;;;;;;12.23;79.95898;101567;;;;-70
2023/05/11 02:28:19;;;;;;;;;;;;;;;12.22;79.97949;101569;;;;-69
2023/05/11 02:33:21;;;;;;;;;;;;;;;12.2;80.02148;101569.9;;;;-71
2023/05/11 02:38:20;;;;;;;;;;;;;;;12.19;80.05273;101573;;;;-70
2023/05/11 02:43:24;;;;;;;;;;;;;;;12.17;80.13672;101572.3;;;;-70
2023/05/11 02:45:25;;;;;;;8.2;4.8;;;;;;;;;;;;;-71
2023/05/11 02:48:22;;;;;;;;;;;;;;;12.14;80.12207;101567.6;;;;-68
2023/05/11 02:53:21;;;;;;;;;;;;;;;12.12;80.18555;101563.5;;;;-70
2023/05/11 02:58:19;;;;;;;;;;;;;;;12.1;80.23633;101566;;;;-70
2023/05/11 03:03:19;;;;;;;;;;;;;;;12.07;80.2959;101566.2;;;;-69
2023/05/11 03:08:20;;;;;;;;;;;;;;;12.05;80.29395;101565.6;;;;-69
2023/05/11 03:13:19;;;;;;;;;;;;;;;12.02;80.2207;101566.3;;;;-69
2023/05/11 03:15:27;;;;;;;7.1;4;;;;;;;;;;;;;-70
2023/05/11 03:18:19;;;;;;;;;;;;;;;11.98;80.21289;101561;;;;-70
2023/05/11 03:23:19;;;;;;;;;;;;;;;11.97;80.32422;101561.2;;;;-69
2023/05/11 03:28:20;;;;;;;;;;;;;;;11.92;80.51563;101566.6;;;;-70
2023/05/11 03:33:19;;;;;;;;;;;;;;;11.89;80.66504;101563;;;;-68
2023/05/11 03:38:19;;;;;;;;;;;;;;;11.85;80.5459;101560.6;;;;-69
2023/05/11 03:43:20;;;;;;;;;;;;;;;11.82;80.62988;101561.6;;;;-69
2023/05/11 03:45:28;;;;;;;8.5;3.5;;;;;;;;;;;;;-69
2023/05/11 03:48:19;;;;;;;;;;;;;;;11.8;80.43652;101558.7;;;;-69
2023/05/11 03:53:19;;;;;;;;;;;;;;;11.81;80.54883;101558.6;;;;-68
2023/05/11 03:58:19;;;;;;;;;;;;;;;11.79;80.5918;101547.4;;;;-71
2023/05/11 04:03:19;;;;;;;;;;;;;;;11.78;80.46582;101544.8;;;;-70
2023/05/11 04:08:19;;;;;;;;;;;;;;;11.77;80.64258;101547.2;;;;-67
2023/05/11 04:13:23;;;;;;;;;;;;;;;11.75;80.4834;101547.4;;;;-70
2023/05/11 04:15:28;;;;;;;6.2;3.7;;;;;;;;;;;;;-69
2023/05/11 04:18:19;;;;;;;;;;;;;;;11.72;80.58789;101547;;;;-71
2023/05/11 04:23:19;;;;;;;;;;;;;;;11.74;80.62402;101554.1;;;;-69
2023/05/11 04:28:22;;;;;;;;;;;;;;;11.73;80.33398;101559.2;;;;-70
2023/05/11 04:33:19;;;;;;;;;;;;;;;11.73;80.55762;101559.8;;;;-70
2023/05/11 04:38:20;;;;;;;;;;;;;;;11.73;80.44727;101565.6;;;;-69
2023/05/11 04:43:19;;;;;;;;;;;;;;;11.75;80.4834;101561.4;;;;-69
2023/05/11 04:45:31;;;;;;;6.3;3.8;;;;;;;;;;;;;-69
2023/05/11 04:48:19;;;;;;;;;;;;;;;11.76;80.37402;101563;;;;-69
2023/05/11 04:53:23;;;;;;;;;;;;;;;11.75;80.18359;101556.7;;;;-69
2023/05/11 04:58:19;;;;;;;;;;;;;;;11.75;80.25098;101559.4;;;;-68
2023/05/11 05:03:20;;;;;;;;;;;;;;;11.75;80.42773;101568.1;;;;-69
2023/05/11 05:08:20;;;;;;;;;;;;;;;11.73;80.3584;101576.7;;;;-69
2023/05/11 05:13:19;;;;;;;;;;;;;;;11.74;80.37109;101581.8;;;;-69
2023/05/11 05:15:31;;;;;;;6.2;3.8;;;;;;;;;;;;;-70
2023/05/11 05:18:21;;;;;;;;;;;;;;;11.75;80.32813;101581.7;;;;-70
2023/05/11 05:23:21;;;;;;;;;;;;;;;11.77;80.2207;101583.2;;;;-70
2023/05/11 05:28:19;;;;;;;;;;;;;;;11.79;80.12402;101589.5;;;;-69
2023/05/11 05:33:19;;;;;;;;;;;;;;;11.84;80.00977;101599;;;;-71
2023/05/11 05:38:19;;;;;;;;;;;;;;;11.89;80.06641;101599.4;;;;-70
2023/05/11 05:43:21;;;;;;;;;;;;;;;11.96;79.87793;101602;;;;-69
2023/05/11 05:45:32;;;;;;;6.6;3.9;;;;;;;;;;;;;-70
2023/05/11 05:48:21;;;;;;;;;;;;;;;12.06;79.84082;101605.3;;;;-69
2023/05/11 05:53:20;;;;;;;;;;;;;;;12.18;79.46191;101606.9;;;;-70
2023/05/11 05:58:19;;;;;;;;;;;;;;;12.28;79.55859;101613.8;;;;-69
2023/05/11 06:03:19;;;;;;;;;;;;;;;12.37;79.74121;101620.3;;;;-71
2023/05/11 06:08:26;;;;;;;;;;;;;;;12.46;79.40039;101628.9;;;;-69
2023/05/11 06:13:20;;;;;;;;;;;;;;;12.59;79.80371;101626.6;;;;-70
2023/05/11 06:15:33;;;;;;;8.1;4.3;;;;;;;;;;;;;-70
2023/05/11 06:18:25;;;;;;;;;;;;;;;12.74;80.1875;101624.1;;;;-70
2023/05/11 06:23:19;;;;;;;;;;;;;;;12.91;79.97266;101624.3;;;;-69
2023/05/11 06:28:23;;;;;;;;;;;;;;;13.06;79.70996;101625.4;;;;-70
2023/05/11 06:33:21;;;;;;;;;;;;;;;13.53;79.28223;101637.6;;;;-69
2023/05/11 06:38:21;;;;;;;;;;;;;;;13.87;78.03809;101646.6;;;;-70
2023/05/11 06:43:20;;;;;;;;;;;;;;;13.94;77.56055;101648.4;;;;-72
2023/05/11 06:45:35;;;;;;;7.4;4.4;;;;;;;;;;;;;-69
2023/05/11 06:53:19;;;;;;;;;;;;;;;13.91;77.8916;101650.5;;;;-69
2023/05/11 06:58:20;;;;;;;;;;;;;;;14.02;77.94238;101657.4;;;;-70
2023/05/11 07:03:19;;;;;;;;;;;;;;;14.13;77.34766;101653.6;;;;-68
2023/05/11 07:08:20;;;;;;;;;;;;;;;14.27;77.54004;101645.9;;;;-70
2023/05/11 07:13:19;;;;;;;;;;;;;;;14.39;77.14648;101639.8;;;;-69
2023/05/11 07:15:36;;;;;;;7.9;4.7;;;;;;;;;;;;;-72
2023/05/11 07:18:20;;;;;;;;;;;;;;;14.6;77.06055;101637.7;;;;-72
2023/05/11 07:23:19;;;;;;;;;;;;;;;14.83;76.63184;101642.7;;;;-76
2023/05/11 07:28:20;;;;;;;;;;;;;;;14.85;77.18164;101649.1;;;;-73
2023/05/11 07:33:20;;;;;;;;;;;;;;;14.82;76.83008;101648.9;;;;-73
2023/05/11 07:38:19;;;;;;;;;;;;;;;14.87;76.89551;101649.6;;;;-73
2023/05/11 07:43:19;;;;;;;;;;;;;;;14.92;77.3291;101647.7;;;;-73
2023/05/11 07:45:38;;;;;;;6.8;4.2;;;;;;;;;;;;;-73
2023/05/11 07:48:19;;;;;;;;;;;;;;;14.98;76.87207;101654.9;;;;-73
2023/05/11 07:53:19;;;;;;;;;;;;;;;15.04;76.91504;101659;;;;-75
2023/05/11 07:58:19;;;;;;;;;;;;;;;15.09;76.99121;101665.1;;;;-73
2023/05/11 08:03:26;;;;;;;;;;;;;;;15.13;76.9082;101662.1;;;;-74
2023/05/11 08:08:19;;;;;;;;;;;;;;;15.16;77.00195;101665.4;;;;-73
2023/05/11 08:13:19;;;;;;;;;;;;;;;15.18;77.02832;101664.3;;;;-74
2023/05/11 08:15:40;;;;;;;5.4;3.3;;;;;;;;;;;;;-71
2023/05/11 08:18:19;;;;;;;;;;;;;;;15.2;76.70703;101666.4;;;;-71
2023/05/11 08:23:19;;;;;;;;;;;;;;;15.22;77.00195;101664.6;;;;-72
2023/05/11 08:28:20;;;;;;;;;;;;;;;15.23;76.62305;101671.1;;;;-71
2023/05/11 08:33:19;;;;;;;;;;;;;;;15.21;76.87793;101675.3;;;;-72
2023/05/11 08:38:19;;;;;;;;;;;;;;;15.16;77.46094;101682.5;;;;-71
2023/05/11 08:43:20;;;;;;;;;;;;;;;15.08;77.62598;101681.5;;;;-71
2023/05/11 08:45:46;;;;;;;5.2;3.3;;;;;;;;;;;;;-71
2023/05/11 08:48:21;;;;;;;;;;;;;;;15.01;78.10742;101679.6;;;;-71
2023/05/11 08:53:20;;;;;;;;;;;;;;;14.97;78.55957;101679.4;;;;-72
2023/05/11 08:58:21;;;;;;;;;;;;;;;14.97;78.89355;101681.6;;;;-69
2023/05/11 09:03:20;;;;;;;;;;;;;;;15.03;78.66797;101683.8;;;;-74
2023/05/11 09:08:20;;;;;;;;;;;;;;;15.06;79.67188;101683.9;;;;-75
2023/05/11 09:13:19;;;;;;;;;;;;;;;15.12;79.70313;101682.5;;;;-74
2023/05/11 09:15:44;;;;;;;6.5;3.7;;;;;;;;;;;;;-73
2023/05/11 09:18:20;;;;;;;;;;;;;;;15.2;79.71777;101684.3;;;;-74
2023/05/11 09:23:26;;;;;;;;;;;;;;;15.3;79.31152;101686;;;;-73
2023/05/11 09:28:23;;;;;;;;;;;;;;;15.37;79.2334;101689.3;;;;-74
2023/05/11 09:33:23;;;;;;;;;;;;;;;15.41;78.9834;101688.7;;;;-73
2023/05/11 09:38:19;;;;;;;;;;;;;;;15.41;79.58789;101686.8;;;;-76
2023/05/11 09:43:23;;;;;;;;;;;;;;;15.42;79.33105;101691.8;;;;-74
2023/05/11 09:45:46;;;;;;;7.1;3.5;;;;;;;;;;;;;-75
2023/05/11 09:48:30;;;;;;;;;;;;;;;15.38;79.44922;101693.2;;;;-76
2023/05/11 09:53:22;;;;;;;;;;;;;;;15.36;80.02734;101695.9;;;;-75
2023/05/11 09:58:19;;;;;;;;;;;;;;;15.38;80.59961;101695.5;;;;-75
2023/05/11 10:03:19;;;;;;;;;;;;;;;15.38;80.88086;101700;;;;-75
2023/05/11 10:08:19;;;;;;;;;;;;;;;15.38;81.30566;101698.7;;;;-76
2023/05/11 10:13:22;;;;;;;;;;;;;;;15.38;82.49121;101701.1;;;;-75
2023/05/11 10:15:53;;;;;;;7.1;3.8;;;;;;;;;;;;;-75
2023/05/11 10:18:19;;;;;;;;;;;;;;;15.35;82.17383;101690.3;;;;-74
2023/05/11 10:23:19;;;;;;;;;;;;;;;15.38;82.68164;101688.5;;;;-75
2023/05/11 10:28:22;;;;;;;;;;;;;;;15.47;82.49512;101692.9;;;;-75
2023/05/11 10:33:19;;;;;;;;;;;;;;;15.6;81.91504;101682.1;;;;-75
2023/05/11 10:38:20;;;;;;;;;;;;;;;15.78;81.61328;101683.3;;;;-74
2023/05/11 10:43:47;;;;;;;;;;;;;;;16;80.56641;101689.2;;;;-74
2023/05/11 10:45:53;;;;;;;5.3;3.6;;;;;;;;;;;;;-76
2023/05/11 10:48:30;;;;;;;;;;;;;;;16.16;80.37305;101698.4;;;;-74
2023/05/11 10:53:31;;;;;;;;;;;;;;;16.24;80.08496;101696.3;;;;-74
2023/05/11 10:58:25;;;;;;;;;;;;;;;16.46;79.80957;101697.2;;;;-72
2023/05/11 11:03:19;;;;;;;;;;;;;;;16.75;78.63867;101690.1;;;;-73
2023/05/11 11:08:19;;;;;;;;;;;;;;;17.02;79.23633;101689.5;;;;-73
2023/05/11 11:13:22;;;;;;;;;;;;;;;17.17;78.07227;101684;;;;-73
2023/05/11 11:16:03;;;;;;;6.5;4.1;;;;;;;;;;;;;-74
2023/05/11 11:18:28;;;;;;;;;;;;;;;17.33;77.42676;101684.7;;;;-74
2023/05/11 11:23:37;;;;;;;;;;;;;;;17.46;76.99902;101684.1;;;;-73
2023/05/11 11:28:20;;;;;;;;;;;;;;;17.52;76.76074;101688.6;;;;-73
2023/05/11 11:33:30;;;;;;;;;;;;;;;17.5;76.76855;101688.4;;;;-73
2023/05/11 11:38:20;;;;;;;;;;;;;;;17.52;76.55762;101686.8;;;;-74
2023/05/11 11:43:20;;;;;;;;;;;;;;;17.57;76.33105;101685;;;;-73
2023/05/11 11:45:58;;;;;;;8.3;5;;;;;;;;;;;;;-75
2023/05/11 11:48:23;;;;;;;;;;;;;;;17.6;76.46094;101685.7;;;;-74
2023/05/11 11:53:29;;;;;;;;;;;;;;;17.63;76.3623;101685.7;;;;-73
2023/05/11 11:58:29;;;;;;;;;;;;;;;17.63;76.38672;101684.7;;;;-74
2023/05/11 12:03:25;;;;;;;;;;;;;;;17.67;76.7627;101688;;;;-74
2023/05/11 12:08:20;;;;;;;;;;;;;;;17.73;76.74219;101687.2;;;;-73
2023/05/11 12:13:20;;;;;;;;;;;;;;;17.78;75.97266;101698.2;;;;-74
2023/05/11 12:16:07;;;;;;;5.8;3.9;;;;;;;;;;;;;-74
2023/05/11 12:18:26;;;;;;;;;;;;;;;17.9;76.625;101694.9;;;;-74
2023/05/11 12:23:19;;;;;;;;;;;;;;;17.9;76.61426;101696.8;;;;-74
2023/05/11 12:28:25;;;;;;;;;;;;;;;17.88;76.94727;101696;;;;-73
2023/05/11 12:33:19;;;;;;;;;;;;;;;17.85;76.7627;101696;;;;-74
2023/05/11 12:38:18;;;;;;;;;;;;;;;17.82;76.47559;101689.4;;;;-74
2023/05/11 12:43:19;;;;;;;;;;;;;;;17.77;76.2959;101690.3;;;;-74
2023/05/11 12:45:59;;;;;;;5.8;3.7;;;;;;;;;;;;;-73
2023/05/11 12:48:19;;;;;;;;;;;;;;;17.65;77.03125;101696.2;;;;-74
2023/05/11 12:53:20;;;;;;;;;;;;;;;17.57;76.79102;101694.2;;;;-75
2023/05/11 12:58:19;;;;;;;;;;;;;;;17.57;77.21875;101691.6;;;;-74
2023/05/11 13:03:23;;;;;;;;;;;;;;;17.61;77.50781;101690.1;;;;-73
2023/05/11 13:08:21;;;;;;;;;;;;;;;17.65;77.26758;101688.2;;;;-75
2023/05/11 13:13:28;;;;;;;;;;;;;;;17.73;77.6084;101686.5;;;;-74
2023/05/11 13:16:04;;;;;;;5.3;3.5;;;;;;;;;;;;;-73
2023/05/11 13:18:21;;;;;;;;;;;;;;;17.88;77.3418;101687.5;;;;-77
2023/05/11 13:23:19;;;;;;;;;;;;;;;17.99;77.50684;101684.2;;;;-73
2023/05/11 13:28:19;;;;;;;;;;;;;;;18.11;76.46777;101682.7;;;;-73
2023/05/11 13:33:20;;;;;;;;;;;;;;;18.09;76.21582;101681.9;;;;-74
2023/05/11 13:38:19;;;;;;;;;;;;;;;18.06;76.4248;101681.9;;;;-73
2023/05/11 13:43:18;;;;;;;;;;;;;;;18.07;76.70996;101683.4;;;;-74
2023/05/11 13:46:05;;;;;;;4.1;2.7;;;;;;;;;;;;;-73
2023/05/11 13:48:19;;;;;;;;;;;;;;;18.17;77.02051;101679.7;;;;-76
2023/05/11 13:53:19;;;;;;;;;;;;;;;18.32;76.2334;101681;;;;-75
2023/05/11 13:58:22;;;;;;;;;;;;;;;18.76;75.78906;101680.3;;;;-73
2023/05/11 14:03:20;;;;;;;;;;;;;;;19.23;75.18066;101681.1;;;;-73
2023/05/11 14:08:21;;;;;;;;;;;;;;;19.59;74.80176;101674.6;;;;-74
2023/05/11 14:13:20;;;;;;;;;;;;;;;19.89;73.97852;101670.3;;;;-73
2023/05/11 14:16:08;;;;;;;4.4;2.7;;;;;;;;;;;;;-72
2023/05/11 14:18:23;;;;;;;;;;;;;;;20.04;72.76953;101671.9;;;;-76
2023/05/11 14:23:18;;;;;;;;;;;;;;;20.01;70.93945;101668.3;;;;-75
2023/05/11 14:28:18;;;;;;;;;;;;;;;20.12;71.9873;101670.9;;;;-73
2023/05/11 14:33:19;;;;;;;;;;;;;;;20.1;70.77148;101670.7;;;;-75
2023/05/11 14:38:18;;;;;;;;;;;;;;;20.11;70.27246;101665.2;;;;-75
2023/05/11 14:43:20;;;;;;;;;;;;;;;20.14;70.15332;101672.3;;;;-73
2023/05/11 14:46:10;;;;;;;3.1;2.2;;;;;;;;;;;;;-73
2023/05/11 14:48:18;;;;;;;;;;;;;;;20.21;70.23242;101676;;;;-74
2023/05/11 14:53:19;;;;;;;;;;;;;;;20.32;69.73926;101671.7;;;;-75
2023/05/11 14:58:19;;;;;;;;;;;;;;;20.31;71.07715;101668.8;;;;-75
2023/05/11 15:03:18;;;;;;;;;;;;;;;20.28;70.19922;101671.1;;;;-74
2023/05/11 15:08:18;;;;;;;;;;;;;;;20.2;69.2666;101671.1;;;;-76
2023/05/11 15:13:19;;;;;;;;;;;;;;;20.16;70.15723;101670.9;;;;-73
2023/05/11 15:16:13;;;;;;;2.8;2.2;;;;;;;;;;;;;-74
2023/05/11 15:18:19;;;;;;;;;;;;;;;20.15;70.4834;101669.5;;;;-75
2023/05/11 15:23:19;;;;;;;;;;;;;;;20.17;70.16895;101673.5;;;;-74
2023/05/11 15:28:20;;;;;;;;;;;;;;;20.17;70.55469;101672.9;;;;-74
2023/05/11 15:33:22;;;;;;;;;;;;;;;20.16;70.65527;101675.8;;;;-75
2023/05/11 15:38:18;;;;;;;;;;;;;;;20.13;70.40137;101678.1;;;;-72
2023/05/11 15:43:19;;;;;;;;;;;;;;;20.14;71.11914;101681.4;;;;-74
2023/05/11 15:46:16;;;;;;;3.1;2.3;;;;;;;;;;;;;-76
2023/05/11 15:48:18;;;;;;;;;;;;;;;20.08;70.75586;101687.7;;;;-73
2023/05/11 15:53:23;;;;;;;;;;;;;;;20.03;70.21582;101682.2;;;;-74
2023/05/11 15:58:18;;;;;;;;;;;;;;;19.98;70.83105;101678.4;;;;-70
2023/05/11 16:03:20;;;;;;;;;;;;;;;19.94;70.92676;101683.3;;;;-69
2023/05/11 16:08:19;;;;;;;;;;;;;;;19.9;70.60352;101686;;;;-69
2023/05/11 16:13:18;;;;;;;;;;;;;;;19.87;71.85742;101688.3;;;;-69
2023/05/11 16:16:21;;;;;;;4;2.5;;;;;;;;;;;;;-70
2023/05/11 16:18:20;;;;;;;;;;;;;;;19.8;70.70117;101691.8;;;;-72
2023/05/11 16:23:19;;;;;;;;;;;;;;;19.78;71.15137;101688.9;;;;-69
2023/05/11 16:28:20;;;;;;;;;;;;;;;19.75;71.87109;101688.2;;;;-70
2023/05/11 16:33:23;;;;;;;;;;;;;;;19.68;71.21387;101687.3;;;;-71
2023/05/11 16:38:22;;;;;;;;;;;;;;;19.62;70.97852;101684.4;;;;-69
2023/05/11 16:43:19;;;;;;;;;;;;;;;19.59;71.79102;101690.2;;;;-71
2023/05/11 16:46:22;;;;;;;4.2;2.6;;;;;;;;;;;;;-69
2023/05/11 16:48:18;;;;;;;;;;;;;;;19.55;72.14551;101683.8;;;;-69
2023/05/11 16:53:21;;;;;;;;;;;;;;;19.49;72.22656;101693.5;;;;-70
2023/05/11 16:58:22;;;;;;;;;;;;;;;19.39;72.90137;101694.1;;;;-71
2023/05/11 17:03:21;;;;;;;;;;;;;;;19.29;72.8623;101693.8;;;;-68
2023/05/11 17:08:19;;;;;;;;;;;;;;;19.19;73.02539;101698.9;;;;-70
2023/05/11 17:13:19;;;;;;;;;;;;;;;19.05;72.46094;101700.9;;;;-70
2023/05/11 17:16:25;;;;;;;4.2;2.9;;;;;;;;;;;;;-70
2023/05/11 17:18:22;;;;;;;;;;;;;;;18.93;73.11816;101703.9;;;;-70
2023/05/11 17:23:19;;;;;;;;;;;;;;;18.83;73.39551;101707.8;;;;-69
2023/05/11 17:28:20;;;;;;;;;;;;;;;18.72;73.99902;101705.9;;;;-70
2023/05/11 17:33:18;;;;;;;;;;;;;;;18.62;74.11816;101713.9;;;;-71
2023/05/11 17:38:19;;;;;;;;;;;;;;;18.5;74.58496;101717.8;;;;-70
2023/05/11 17:43:19;;;;;;;;;;;;;;;18.38;74.82324;101716.1;;;;-70
2023/05/11 17:46:28;;;;;;;4.9;3.3;;;;;;;;;;;;;-70
2023/05/11 17:48:20;;;;;;;;;;;;;;;18.27;75.0752;101717.8;;;;-71
2023/05/11 17:53:19;;;;;;;;;;;;;;;18.18;75.36426;101718.9;;;;-70
2023/05/11 17:58:20;;;;;;;;;;;;;;;18.08;75.37012;101718.9;;;;-70
2023/05/11 18:03:21;;;;;;;;;;;;;;;17.99;75.61426;101718.9;;;;-70
2023/05/11 18:08:21;;;;;;;;;;;;;;;17.88;75.49414;101719.1;;;;-72
2023/05/11 18:13:19;;;;;;;;;;;;;;;17.78;75.74707;101725.3;;;;-69
2023/05/11 18:16:30;;;;;;;6.1;2.9;;;;;;;;;;;;;-69
2023/05/11 18:18:22;;;;;;;;;;;;;;;17.66;75.90723;101725.2;;;;-70
2023/05/11 18:23:19;;;;;;;;;;;;;;;17.53;75.64941;101726.8;;;;-69
2023/05/11 18:28:18;;;;;;;;;;;;;;;17.43;75.63184;101729.6;;;;-71
2023/05/11 18:33:21;;;;;;;;;;;;;;;17.31;76.12793;101741.5;;;;-69
2023/05/11 18:38:18;;;;;;;;;;;;;;;17.21;76.03223;101746.7;;;;-74
2023/05/11 18:43:19;;;;;;;;;;;;;;;17.08;76.31348;101752.1;;;;-74
2023/05/11 18:46:32;;;;;;;5;3.6;;;;;;;;;;;;;-74
2023/05/11 18:48:20;;;;;;;;;;;;;;;16.97;75.81152;101752.1;;;;-76
2023/05/11 18:53:19;;;;;;;;;;;;;;;16.86;75.89453;101765.3;;;;-74
2023/05/11 18:58:19;;;;;;;;;;;;;;;16.74;75.55762;101772.8;;;;-76
2023/05/11 19:03:19;;;;;;;;;;;;;;;16.61;76.03223;101779.4;;;;-73
2023/05/11 19:08:21;;;;;;;;;;;;;;;16.48;75.67285;101780.3;;;;-73
2023/05/11 19:13:18;;;;;;;;;;;;;;;16.35;75.60449;101784.5;;;;-73
2023/05/11 19:16:35;;;;;;;4.1;2.9;;;;;;;;;;;;;-75
2023/05/11 19:18:20;;;;;;;;;;;;;;;16.22;75.51465;101789.8;;;;-74
2023/05/11 19:23:21;;;;;;;;;;;;;;;16.08;75.83887;101797.8;;;;-74
2023/05/11 19:28:19;;;;;;;;;;;;;;;15.95;75.96289;101798.6;;;;-74
2023/05/11 19:33:19;;;;;;;;;;;;;;;15.82;75.70508;101800.7;;;;-74
2023/05/11 19:38:26;;;;;;;;;;;;;;;15.68;75.52344;101810.9;;;;-74
2023/05/11 19:43:19;;;;;;;;;;;;;;;15.55;75.01953;101815.7;;;;-75
2023/05/11 19:46:44;;;;;;;3.6;1.8;;;;;;;;;;;;;-74
2023/05/11 19:48:19;;;;;;;;;;;;;;;15.44;75.34863;101829.6;;;;-77
2023/05/11 19:53:21;;;;;;;;;;;;;;;15.32;75.16992;101834;;;;-75
2023/05/11 19:58:18;;;;;;;;;;;;;;;15.21;75.95801;101835.6;;;;-76
2023/05/11 20:03:19;;;;;;;;;;;;;;;15.09;75.5918;101846.1;;;;-75
2023/05/11 20:08:18;;;;;;;;;;;;;;;14.99;75.9668;101846.8;;;;-76
2023/05/11 20:13:18;;;;;;;;;;;;;;;14.87;76.48145;101849.8;;;;-74
2023/05/11 20:16:39;;;;;;;2.7;1.6;;;;;;;;;;;;;-74
2023/05/11 20:18:22;;;;;;;;;;;;;;;14.76;76.3623;101846.6;;;;-76
2023/05/11 20:23:20;;;;;;;;;;;;;;;14.65;76.33203;101855.1;;;;-73
2023/05/11 20:28:19;;;;;;;;;;;;;;;14.55;76.24805;101857.3;;;;-74
2023/05/11 20:33:19;;;;;;;;;;;;;;;14.45;76.83398;101861.2;;;;-75
2023/05/11 20:38:18;;;;;;;;;;;;;;;14.35;76.90625;101860.5;;;;-76
2023/05/11 20:43:18;;;;;;;;;;;;;;;14.28;76.9043;101862.6;;;;-74
2023/05/11 20:46:42;;;;;;;2.9;1.7;;;;;;;;;;;;;-74
2023/05/11 20:48:18;;;;;;;;;;;;;;;14.21;76.99219;101864;;;;-76
2023/05/11 20:53:19;;;;;;;;;;;;;;;14.12;77.34668;101866.7;;;;-73
2023/05/11 20:58:19;;;;;;;;;;;;;;;14.02;77.3623;101867.4;;;;-70
2023/05/11 21:03:21;;;;;;;;;;;;;;;13.97;77.78809;101868.6;;;;-70
2023/05/11 21:08:19;;;;;;;;;;;;;;;13.89;77.9873;101870.8;;;;-69
2023/05/11 21:13:28;;;;;;;;;;;;;;;13.82;77.96289;101876.5;;;;-71
2023/05/11 21:16:42;;;;;;;3.7;2.2;;;;;;;;;;;;;-71
2023/05/11 21:18:18;;;;;;;;;;;;;;;13.76;78.26465;101877.5;;;;-70
2023/05/11 21:23:18;;;;;;;;;;;;;;;13.72;78.46973;101876.6;;;;-69
2023/05/11 21:28:21;;;;;;;;;;;;;;;13.67;78.32813;101879.4;;;;-70
2023/05/11 21:33:18;;;;;;;;;;;;;;;13.62;78.55176;101879.3;;;;-70
2023/05/11 21:38:20;;;;;;;;;;;;;;;13.57;78.57715;101884.8;;;;-70
2023/05/11 21:43:18;;;;;;;;;;;;;;;13.52;78.62305;101888.6;;;;-70
2023/05/11 21:46:45;;;;;;;3.4;1.9;;;;;;;;;;;;;-71
2023/05/11 21:48:21;;;;;;;;;;;;;;;13.47;78.3252;101887.9;;;;-70
2023/05/11 21:53:18;;;;;;;;;;;;;;;13.42;78.79492;101891.7;;;;-70
2023/05/11 21:58:21;;;;;;;;;;;;;;;13.38;78.77734;101886.5;;;;-69
2023/05/11 22:03:18;;;;;;;;;;;;;;;13.33;78.64551;101888.6;;;;-70
2023/05/11 22:08:18;;;;;;;;;;;;;;;13.29;78.75;101888.2;;;;-71
2023/05/11 22:13:18;;;;;;;;;;;;;;;13.24;78.76367;101889.9;;;;-70
2023/05/11 22:16:46;;;;;;;3.7;2.1;;;;;;;;;;;;;-71
2023/05/11 22:18:19;;;;;;;;;;;;;;;13.17;78.97363;101894.1;;;;-70
2023/05/11 22:23:19;;;;;;;;;;;;;;;13.12;79.0752;101898.1;;;;-70
2023/05/11 22:28:18;;;;;;;;;;;;;;;13.07;78.93359;101896.1;;;;-69
2023/05/11 22:33:18;;;;;;;;;;;;;;;13.03;78.8916;101900.8;;;;-70
2023/05/11 22:38:20;;;;;;;;;;;;;;;12.98;78.91602;101896.4;;;;-71
2023/05/11 22:43:21;;;;;;;;;;;;;;;12.93;79.24316;101898.6;;;;-70
2023/05/11 22:46:48;;;;;;;2.7;1.8;;;;;;;;;;;;;-71
2023/05/11 22:48:18;;;;;;;;;;;;;;;12.9;79.02539;101895.8;;;;-71
2023/05/11 22:53:19;;;;;;;;;;;;;;;12.86;78.97363;101906.3;;;;-70
2023/05/11 22:58:18;;;;;;;;;;;;;;;12.83;79.29004;101911.9;;;;-70
2023/05/11 23:03:19;;;;;;;;;;;;;;;12.81;79.22949;101908.6;;;;-70
2023/05/11 23:08:20;;;;;;;;;;;;;;;12.77;79.28027;101907.5;;;;-70
2023/05/11 23:13:21;;;;;;;;;;;;;;;12.74;79.34082;101906.3;;;;-70
2023/05/11 23:16:51;;;;;;;2.6;1.8;;;;;;;;;;;;;-69
2023/05/11 23:18:18;;;;;;;;;;;;;;;12.71;79.48047;101902.2;;;;-69
2023/05/11 23:23:21;;;;;;;;;;;;;;;12.69;79.33008;101900.8;;;;-70
2023/05/11 23:28:21;;;;;;;;;;;;;;;12.66;79.44922;101902.8;;;;-70
2023/05/11 23:33:20;;;;;;;;;;;;;;;12.62;79.33008;101900.1;;;;-70
2023/05/11 23:38:18;;;;;;;;;;;;;;;12.61;79.4082;101893.8;;;;-70
2023/05/11 23:43:19;;;;;;;;;;;;;;;12.59;79.5918;101890.4;;;;-72
2023/05/11 23:46:50;;;;;;;3.1;1.9;;;;;;;;;;;;;-71
2023/05/11 23:48:20;;;;;;;;;;;;;;;12.57;79.48828;101891.4;;;;-69
2023/05/11 23:53:19;;;;;;;;;;;;;;;12.55;79.47266;101884.6;;;;-70
2023/05/11 23:58:19;;;;;;;;;;;;;;;12.53;79.60254;101880.8;;;;-70
